Zeus — V2OR — position and weather

sailwx.info

Track history (hours):
 
Tides and Currents Weather Stations Pressure Air Temp Water Temp Dewpoint Dewpoint Depression Visibility Wind Speed Wind Dir Waves Ship Positions

Zeus

Last reported at 2016-May-30 21:33 UTC. Time now 2016-May-30 22:16 UTC.
Position N 59°11' E 010°57'.

Length 89 m; draft 4 m.

Type: Ship. MMSI: 304011025.

Date/timePositionNaut miles runAvg speedWind from/ knotsBaromVisibWave heightAir tempDewpointWater temp
2016-May-30 21:33N 59°11' E 010°57'0 0.0
2016-May-30 20:32N 59°11' E 010°57'0 0.0
2016-May-30 19:33N 59°11' E 010°57'0 0.0
2016-May-30 18:31N 59°11' E 010°57'0 0.0
2016-May-30 17:32N 59°11' E 010°57'0 0.0
2016-May-30 16:32N 59°11' E 010°57'0 0.0
2016-May-30 15:33N 59°11' E 010°57'0 0.0
2016-May-30 14:32N 59°11' E 010°57'0 0.0
2016-May-30 13:32N 59°11' E 010°57'3 3.4
2016-May-30 12:34N 59°08' E 010°55'8 8.4
2016-May-30 11:34N 59°14' E 010°43'1010.0
2016-May-30 10:33N 59°23' E 010°35'3 3.4
2016-May-30 09:32N 59°25' E 010°30'0 0.0
2016-May-30 08:30N 59°25' E 010°30'0 0.0
2016-May-30 07:31N 59°25' E 010°30'0 0.0
2016-May-30 06:32N 59°25' E 010°30'0 0.0
2016-May-30 05:32N 59°25' E 010°30'0 0.0
2016-May-30 04:32N 59°25' E 010°30'0 0.0
2016-May-30 03:33N 59°25' E 010°30'0 0.0
2016-May-30 02:33N 59°25' E 010°30'0 0.0
2016-May-30 01:33N 59°25' E 010°30'0 0.0
2016-May-30 00:32N 59°25' E 010°30'0 0.0
2016-May-29 23:32N 59°25' E 010°30'0 0.0
2016-May-29 22:31N 59°25' E 010°30'0 0.0
2016-May-29 21:28N 59°25' E 010°30'0 0.0
2016-May-29 20:33N 59°25' E 010°30'0 0.0
2016-May-29 19:33N 59°25' E 010°30'0 0.0
2016-May-29 18:32N 59°25' E 010°30'0 0.0
2016-May-29 17:29N 59°25' E 010°30'0 0.0
2016-May-29 16:32N 59°25' E 010°30'1 1.1
2016-May-29 15:34N 59°24' E 010°30'9 9.1
2016-May-29 14:34N 59°15' E 010°35'9 9.4
2016-May-29 13:33N 59°06' E 010°34'9 9.3
2016-May-29 12:33N 58°57' E 010°28'9 9.1
2016-May-29 11:33N 58°49' E 010°18'323 9.5
2016-May-28 01:30N 54°13' E 005°15'1010.2
2016-May-28 00:33N 54°04' E 005°08'1010.4
2016-May-27 23:33N 53°54' E 005°02'1010.4
2016-May-27 22:33N 53°45' E 004°56'9110.0
2016-May-27 13:32N 52°22' E 003°53'9 8.6
2016-May-27 12:33N 52°14' E 003°53'9 8.7
2016-May-27 11:33N 52°05' E 003°56'10 9.9
2016-May-27 10:34N 51°59' E 004°07'1110.7
2016-May-27 09:34N 51°54' E 004°23'3 3.2
2016-May-27 08:34N 51°54' E 004°28'0 0.0
2016-May-27 07:33N 51°54' E 004°28'3 3.1
2016-May-27 06:33N 51°54' E 004°33'5 5.4
2016-May-27 05:33N 51°51' E 004°40'4 3.6
2016-May-27 04:33N 51°49' E 004°45'65 9.1
2016-May-26 21:27N 51°40' E 006°29'8 8.3
2016-May-26 20:26N 51°35' E 006°39'  
2016-May-24 06:28N 51°32' E 006°41'4 3.7
2016-May-24 05:17N 51°35' E 006°36'4 5.4
2016-May-24 04:33N 51°39' E 006°36'62 5.2
2016-May-23 16:33N 51°50' E 004°56'9 9.4
2016-May-23 15:34N 51°49' E 004°41'9 9.0
2016-May-23 14:33N 51°55' E 004°30'1 1.3
2016-May-23 13:34N 51°54' E 004°28'1 1.2
2016-May-23 12:33N 51°54' E 004°26'8 8.2
2016-May-23 11:33N 51°56' E 004°13'8 7.7
2016-May-23 10:34N 51°59' E 004°02'9 9.1
2016-May-23 09:31N 52°02' E 003°47'1212.0
2016-May-23 08:33N 52°14' E 003°46'11610.5
2016-May-22 21:32N 54°02' E 004°56'1010.6
2016-May-22 20:33N 54°11' E 005°05'317 9.8
2016-May-21 12:04N 58°47' E 009°48'5 9.8
2016-May-21 11:33N 58°52' E 009°49'9 9.1
2016-May-21 10:33N 59°01' E 009°46'  
Track history (hours):
 
Tides and Currents Weather Stations Pressure Air Temp Water Temp Dewpoint Dewpoint Depression Visibility Wind Speed Wind Dir Waves Ship Positions

Zeus

Last reported at 2016-May-30 21:33 UTC. Time now 2016-May-30 22:16 UTC.
Position N 59°11' E 010°57'.

Length 89 m; draft 4 m.

Type: Ship. MMSI: 304011025.

Date/timePositionNaut miles runAvg speedWind from/ knotsBaromVisibWave heightAir tempDewpointWater temp
2016-May-30 21:33N 59°11' E 010°57'0 0.0
2016-May-30 20:32N 59°11' E 010°57'0 0.0
2016-May-30 19:33N 59°11' E 010°57'0 0.0
2016-May-30 18:31N 59°11' E 010°57'0 0.0
2016-May-30 17:32N 59°11' E 010°57'0 0.0
2016-May-30 16:32N 59°11' E 010°57'0 0.0
2016-May-30 15:33N 59°11' E 010°57'0 0.0
2016-May-30 14:32N 59°11' E 010°57'0 0.0
2016-May-30 13:32N 59°11' E 010°57'3 3.4
2016-May-30 12:34N 59°08' E 010°55'8 8.4
2016-May-30 11:34N 59°14' E 010°43'1010.0
2016-May-30 10:33N 59°23' E 010°35'3 3.4
2016-May-30 09:32N 59°25' E 010°30'0 0.0
2016-May-30 08:30N 59°25' E 010°30'0 0.0
2016-May-30 07:31N 59°25' E 010°30'0 0.0
2016-May-30 06:32N 59°25' E 010°30'0 0.0
2016-May-30 05:32N 59°25' E 010°30'0 0.0
2016-May-30 04:32N 59°25' E 010°30'0 0.0
2016-May-30 03:33N 59°25' E 010°30'0 0.0
2016-May-30 02:33N 59°25' E 010°30'0 0.0
2016-May-30 01:33N 59°25' E 010°30'0 0.0
2016-May-30 00:32N 59°25' E 010°30'0 0.0
2016-May-29 23:32N 59°25' E 010°30'0 0.0
2016-May-29 22:31N 59°25' E 010°30'0 0.0
2016-May-29 21:28N 59°25' E 010°30'0 0.0
2016-May-29 20:33N 59°25' E 010°30'0 0.0
2016-May-29 19:33N 59°25' E 010°30'0 0.0
2016-May-29 18:32N 59°25' E 010°30'0 0.0
2016-May-29 17:29N 59°25' E 010°30'0 0.0
2016-May-29 16:32N 59°25' E 010°30'1 1.1
2016-May-29 15:34N 59°24' E 010°30'9 9.1
2016-May-29 14:34N 59°15' E 010°35'9 9.4
2016-May-29 13:33N 59°06' E 010°34'9 9.3
2016-May-29 12:33N 58°57' E 010°28'9 9.1
2016-May-29 11:33N 58°49' E 010°18'323 9.5
2016-May-28 01:30N 54°13' E 005°15'1010.2
2016-May-28 00:33N 54°04' E 005°08'1010.4
2016-May-27 23:33N 53°54' E 005°02'1010.4
2016-May-27 22:33N 53°45' E 004°56'9110.0
2016-May-27 13:32N 52°22' E 003°53'9 8.6
2016-May-27 12:33N 52°14' E 003°53'9 8.7
2016-May-27 11:33N 52°05' E 003°56'10 9.9
2016-May-27 10:34N 51°59' E 004°07'1110.7
2016-May-27 09:34N 51°54' E 004°23'3 3.2
2016-May-27 08:34N 51°54' E 004°28'0 0.0
2016-May-27 07:33N 51°54' E 004°28'3 3.1
2016-May-27 06:33N 51°54' E 004°33'5 5.4
2016-May-27 05:33N 51°51' E 004°40'4 3.6
2016-May-27 04:33N 51°49' E 004°45'65 9.1
2016-May-26 21:27N 51°40' E 006°29'8 8.3
2016-May-26 20:26N 51°35' E 006°39'  
2016-May-24 06:28N 51°32' E 006°41'4 3.7
2016-May-24 05:17N 51°35' E 006°36'4 5.4
2016-May-24 04:33N 51°39' E 006°36'62 5.2
2016-May-23 16:33N 51°50' E 004°56'9 9.4
2016-May-23 15:34N 51°49' E 004°41'9 9.0
2016-May-23 14:33N 51°55' E 004°30'1 1.3
2016-May-23 13:34N 51°54' E 004°28'1 1.2
2016-May-23 12:33N 51°54' E 004°26'8 8.2
2016-May-23 11:33N 51°56' E 004°13'8 7.7
2016-May-23 10:34N 51°59' E 004°02'9 9.1
2016-May-23 09:31N 52°02' E 003°47'1212.0
2016-May-23 08:33N 52°14' E 003°46'11610.5
2016-May-22 21:32N 54°02' E 004°56'1010.6
2016-May-22 20:33N 54°11' E 005°05'317 9.8
2016-May-21 12:04N 58°47' E 009°48'5 9.8
2016-May-21 11:33N 58°52' E 009°49'9 9.1
2016-May-21 10:33N 59°01' E 009°46'  

Dump ship's entire track history